createdAt,value
2022-08-09T00:00:56.690Z,3.0
2022-08-09T00:06:18.099Z,4.0
2022-08-09T00:11:25.033Z,3.0
2022-08-09T00:16:15.276Z,5.0
2022-08-09T00:21:21.490Z,4.0
2022-08-09T00:26:32.777Z,4.0
2022-08-09T00:31:58.949Z,5.0
2022-08-09T00:36:41.744Z,4.0
2022-08-09T00:44:10.126Z,3.0
2022-08-09T00:46:56.854Z,4.0
2022-08-09T00:51:57.764Z,4.0
2022-08-09T00:57:10.385Z,4.0
2022-08-09T01:02:09.213Z,5.0
2022-08-09T01:07:15.415Z,4.0
2022-08-09T01:12:21.625Z,4.0
2022-08-09T01:17:30.434Z,4.0
2022-08-09T01:22:34.385Z,5.5
2022-08-09T01:27:40.247Z,4.0
2022-08-09T01:32:46.464Z,4.0
2022-08-09T01:38:07.748Z,4.0
2022-08-09T01:42:58.876Z,4.0
2022-08-09T01:48:06.057Z,5.0
2022-08-09T01:53:19.324Z,5.0
2022-08-09T01:58:17.498Z,5.0
2022-08-09T02:03:23.708Z,5.0
2022-08-09T02:08:40.098Z,5.0
2022-08-09T02:13:37.680Z,5.0
2022-08-09T02:18:42.761Z,5.0
2022-08-09T02:23:48.537Z,5.0
2022-08-09T02:28:54.747Z,5.5
2022-08-09T02:34:12.784Z,6.0
2022-08-09T02:39:07.185Z,6.0
2022-08-09T02:44:13.733Z,6.0
2022-08-09T02:49:18.618Z,6.0
2022-08-09T02:54:23.845Z,6.0
2022-08-09T02:59:36.689Z,8.0
2022-08-09T03:04:36.294Z,6.0
2022-08-09T03:09:42.607Z,6.0
2022-08-09T03:14:48.671Z,7.0
2022-08-09T03:20:00.496Z,7.0
2022-08-09T03:25:25.882Z,7.0
2022-08-09T03:30:07.598Z,7.0
2022-08-09T03:35:24.377Z,7.0
2022-08-09T03:40:19.716Z,7.0
2022-08-09T03:46:04.251Z,8.0
2022-08-09T03:50:32.140Z,7.0
2022-08-09T03:55:40.999Z,7.0
2022-08-09T04:00:44.595Z,7.0
2022-08-09T04:05:50.774Z,7.0
2022-08-09T04:11:01.371Z,8.0
2022-08-09T04:16:19.671Z,8.0
2022-08-09T04:21:09.376Z,8.0
2022-08-09T04:26:15.581Z,8.0
2022-08-09T04:31:21.796Z,8.0
2022-08-09T04:36:28.001Z,8.0
2022-08-09T04:41:33.887Z,8.0
2022-08-09T04:46:58.888Z,8.0
2022-08-09T04:51:44.682Z,9.0
2022-08-09T04:56:50.893Z,9.0
2022-08-09T05:01:57.097Z,10.0
2022-08-09T05:07:03.313Z,10.0
2022-08-09T05:12:09.522Z,10.0
2022-08-09T05:18:37.820Z,9.0
2022-08-09T05:23:50.575Z,10.0
2022-08-09T05:27:28.151Z,10.0
2022-08-09T05:32:34.543Z,11.0
2022-08-09T05:37:47.643Z,10.0
2022-08-09T05:42:46.773Z,10.0
2022-08-09T05:47:56.868Z,10.5
2022-08-09T05:52:59.188Z,11.0
2022-08-09T05:58:07.240Z,11.0
2022-08-09T06:03:11.645Z,10.0
2022-08-09T06:08:19.753Z,11.0
2022-08-09T06:13:24.020Z,10.0
2022-08-09T06:18:30.267Z,11.0
2022-08-09T06:23:55.093Z,10.0
2022-08-09T06:28:43.215Z,10.0
2022-08-09T06:33:53.215Z,10.0
2022-08-09T06:38:54.095Z,8.0
2022-08-09T06:44:00.299Z,9.0
2022-08-09T06:49:06.513Z,8.0
2022-08-09T06:54:14.823Z,7.0
2022-08-09T07:00:49.824Z,8.0
2022-08-09T07:04:25.137Z,8.0
2022-08-09T07:09:54.874Z,7.0
2022-08-09T07:14:37.549Z,9.0
2022-08-09T07:19:43.762Z,7.0
2022-08-09T07:24:49.971Z,7.0
2022-08-09T07:29:57.111Z,7.0
2022-08-09T07:35:02.696Z,6.0
2022-08-09T07:40:08.643Z,6.0
2022-08-09T07:55:28.642Z,5.0
2022-08-09T08:00:35.500Z,6.0
2022-08-09T08:05:57.960Z,5.0
2022-08-09T08:10:48.776Z,6.0
2022-08-09T08:15:52.059Z,6.0
2022-08-09T08:20:58.271Z,5.0
2022-08-09T08:26:08.183Z,5.0
2022-08-09T08:31:14.612Z,5.0
2022-08-09T08:36:14.950Z,4.0
2022-08-09T08:41:21.160Z,4.0
2022-08-09T08:46:33.337Z,4.0
2022-08-09T08:51:41.961Z,4.0
2022-08-09T08:56:38.811Z,4.5
2022-08-09T09:01:56.992Z,3.0
2022-08-09T09:06:51.256Z,3.0
2022-08-09T09:11:58.136Z,4.0
2022-08-09T09:17:03.651Z,3.0
2022-08-09T09:22:11.619Z,5.0
2022-08-09T09:27:47.256Z,3.0
2022-08-09T09:32:35.070Z,3.0
2022-08-09T09:37:32.083Z,3.0
2022-08-09T09:42:35.106Z,2.0
2022-08-09T09:47:56.724Z,3.0
2022-08-09T09:52:53.422Z,3.0
2022-08-09T09:58:04.974Z,2.0
2022-08-09T10:02:59.622Z,3.0
2022-08-09T10:08:27.007Z,4.0
2022-08-09T10:13:11.959Z,1.0
2022-08-09T10:18:18.523Z,2.0
2022-08-09T10:23:24.371Z,2.0
2022-08-09T10:28:30.620Z,2.0
2022-08-09T10:34:08.107Z,2.0
2022-08-09T10:38:56.664Z,1.0
2022-08-09T10:43:58.747Z,2.0
2022-08-09T10:48:54.468Z,2.0
2022-08-09T10:54:04.809Z,2.0
2022-08-09T10:59:06.900Z,1.0
2022-08-09T11:04:19.831Z,1.0
2022-08-09T11:09:19.338Z,2.0
2022-08-09T11:14:28.041Z,2.0
2022-08-09T11:20:12.208Z,2.0
2022-08-09T11:24:37.999Z,1.5
2022-08-09T11:30:06.130Z,1.0
2022-08-09T11:34:51.610Z,3.0
2022-08-09T11:39:56.683Z,1.0
2022-08-09T11:45:02.914Z,1.0
2022-08-09T11:50:54.407Z,1.0
2022-08-09T11:55:15.291Z,2.0
2022-08-09T12:00:27.190Z,1.0
2022-08-09T12:05:27.815Z,1.0
2022-08-09T12:10:39.574Z,1.0
2022-08-09T12:15:49.635Z,1.0
2022-08-09T12:20:46.520Z,1.0
2022-08-09T12:25:51.636Z,2.0
2022-08-09T12:30:56.872Z,1.0
2022-08-09T12:36:03.086Z,1.0
2022-08-09T12:41:09.311Z,1.0
2022-08-09T12:46:15.525Z,1.0
2022-08-09T12:51:30.309Z,1.0
2022-08-09T12:56:39.886Z,1.0
2022-08-09T13:01:34.275Z,1.0
2022-08-09T13:06:40.423Z,1.0
2022-08-09T13:11:46.612Z,2.0
2022-08-09T13:16:52.831Z,1.0
2022-08-09T13:22:37.419Z,2.0
2022-08-09T13:27:06.070Z,1.0
2022-08-09T13:32:19.430Z,1.0
2022-08-09T13:37:24.649Z,2.0
2022-08-09T13:42:23.962Z,2.0
2022-08-09T13:47:49.452Z,1.0
2022-08-09T13:52:36.699Z,2.0
2022-08-09T13:57:42.567Z,1.0
2022-08-09T14:03:04.264Z,1.0
2022-08-09T14:07:55.002Z,1.0
2022-08-09T14:13:01.214Z,2.0
2022-08-09T14:18:19.772Z,3.0
2022-08-09T14:23:20.233Z,4.0
2022-08-09T14:28:17.901Z,1.0
2022-08-09T14:33:24.109Z,1.0
2022-08-09T14:38:30.320Z,2.0
2022-08-09T14:43:47.233Z,3.0
2022-08-09T14:48:41.772Z,8.0
2022-08-09T14:53:48.781Z,1.0
2022-08-09T14:58:56.113Z,1.0
2022-08-09T15:04:00.407Z,1.0
2022-08-09T15:09:06.619Z,2.0
2022-08-09T15:14:13.498Z,1.0
2022-08-09T15:19:19.962Z,1.0
2022-08-09T15:24:27.405Z,1.0
2022-08-09T15:30:55.673Z,1.0
2022-08-09T15:34:37.665Z,2.0
2022-08-09T15:39:54.764Z,1.0
2022-08-09T15:44:50.092Z,2.0
2022-08-09T15:50:00.456Z,1.0
2022-08-09T15:55:02.518Z,1.0
2022-08-09T16:00:08.729Z,1.0
2022-08-09T16:05:14.933Z,0.5
2022-08-09T16:10:56.122Z,1.0
2022-08-09T16:16:04.874Z,1.0
2022-08-09T16:20:33.569Z,1.0
2022-08-09T16:25:40.812Z,1.0
2022-08-09T16:30:54.091Z,2.0
2022-08-09T16:35:57.323Z,1.0
2022-08-09T16:40:57.533Z,1.0
2022-08-09T16:46:02.667Z,1.0
2022-08-09T16:51:13.805Z,1.5
2022-08-09T16:56:15.082Z,1.0
2022-08-09T17:01:24.660Z,1.0
2022-08-09T17:06:32.154Z,3.0
2022-08-09T17:11:40.273Z,1.0
2022-08-09T17:16:39.925Z,1.0
2022-08-09T17:21:46.714Z,1.0
2022-08-09T17:26:53.777Z,1.0
2022-08-09T17:31:58.549Z,1.5
2022-08-09T17:37:04.767Z,1.0
2022-08-09T17:42:10.970Z,1.0
2022-08-09T17:47:17.191Z,0.0
2022-08-09T17:52:23.394Z,1.0
2022-08-09T17:58:02.884Z,1.0
2022-08-09T18:02:35.993Z,1.0
2022-08-09T18:07:48.612Z,1.0
2022-08-09T18:13:54.303Z,1.0
2022-08-09T18:18:04.010Z,1.0
2022-08-09T18:22:59.930Z,2.0
2022-08-09T18:28:10.063Z,2.0
2022-08-09T18:33:13.465Z,1.0
2022-08-09T18:38:16.416Z,1.0
2022-08-09T18:43:22.638Z,1.0
2022-08-09T18:48:30.354Z,2.0
2022-08-09T18:53:56.619Z,1.0
2022-08-09T18:58:41.294Z,1.0
2022-08-09T19:04:01.809Z,1.0
2022-08-09T19:08:55.283Z,1.0
2022-08-09T19:14:03.074Z,2.0
2022-08-09T19:19:23.650Z,2.0
2022-08-09T19:24:36.456Z,1.0
2022-08-09T19:29:20.677Z,1.0
2022-08-09T19:34:24.921Z,1.0
2022-08-09T19:40:02.311Z,2.0
2022-08-09T19:44:37.213Z,2.0
2022-08-09T19:50:48.571Z,2.0
2022-08-09T19:54:49.626Z,1.0
2022-08-09T19:59:59.319Z,2.0
2022-08-09T20:05:09.702Z,1.0
2022-08-09T20:10:18.075Z,1.0
2022-08-09T20:16:34.089Z,1.0
2022-08-09T20:20:20.669Z,1.0
2022-08-09T20:25:25.905Z,1.0
2022-08-09T20:30:32.111Z,1.0
2022-08-09T20:35:37.357Z,1.0
2022-08-09T20:40:43.610Z,1.0
2022-08-09T20:46:00.317Z,1.0
2022-08-09T20:50:58.174Z,2.0
2022-08-09T20:56:03.061Z,2.0
2022-08-09T21:01:32.291Z,2.0
2022-08-09T21:06:14.607Z,2.0
2022-08-09T21:16:28.263Z,1.0
2022-08-09T21:21:53.809Z,2.0
2022-08-09T21:26:39.440Z,2.0
2022-08-09T21:36:55.658Z,1.0
2022-08-09T21:42:04.301Z,1.0
2022-08-09T21:47:04.276Z,1.0
2022-08-09T21:52:14.773Z,1.0
2022-08-09T21:57:35.628Z,1.0
2022-08-09T22:02:36.202Z,1.0
2022-08-09T22:07:41.379Z,1.0
2022-08-09T22:12:35.428Z,3.0
2022-08-09T22:17:46.358Z,2.0
2022-08-09T22:22:48.496Z,2.0
2022-08-09T22:27:52.969Z,1.0
2022-08-09T22:32:59.181Z,2.0
2022-08-09T22:38:07.374Z,3.0
2022-08-09T22:43:17.114Z,1.0
2022-08-09T22:48:34.383Z,1.0
2022-08-09T22:53:23.044Z,2.0
2022-08-09T22:58:32.242Z,1.0
2022-08-09T23:04:03.673Z,2.0
2022-08-09T23:08:41.665Z,2.0
2022-08-09T23:13:47.872Z,1.0
2022-08-09T23:18:54.091Z,1.0
2022-08-09T23:24:05.710Z,1.0
2022-08-09T23:29:06.499Z,3.0
2022-08-09T23:34:12.710Z,2.0
2022-08-09T23:39:18.963Z,2.0
2022-08-09T23:44:25.126Z,1.0
2022-08-09T23:49:31.332Z,2.0
2022-08-09T23:54:37.543Z,2.0
2022-08-09T23:59:43.751Z,2.0
